Carolina, Brazil
Current Conditions -  °F | °C
As of 5:00 AM on Wednesday 22 Oct 2014 (Local Time) from SBIZ Reporting Station
Thunderstorm Thunderstorm  
Wind Chill: 75°   Ceiling: 1800
Heat Index: NA   Visibility: 3mi
Dew Point: NA   Wind: 6mph
Humidity: NA   Direction: 330°NNW
Pressure: 29.85"   Gusts: NA
Location:  7.33°S, 47.47°W
Report Text: SBIZ 220800Z 33005KT 5000 VCSH TS BR FEW005 BKN018 FEW025CB 24/23 Q1011
Loading
Personal Weather Stations






























Interactive Weather Map
Tropical Storm Tracking
New forecast layout! Learn more

10-Day Weather Forecast

Advertisements
Track Severe Weather on mobile